Time;durP1;ratioP1;P1;durP2;ratioP2;P2;SDS_P1;SDS_P2;PMS_P1;PMS_P2;Temp;Humidity;BMP_temperature;BMP_pressure;BME280_temperature;BME280_humidity;BME280_pressure;Samples;Min_cycle;Max_cycle;Signal;HPM_P1;HPM_P2
2023/10/27 00:01:43;;;;;;;3.58;2.55;;;17.50;72.90;;;;;;6197991;28;20479;-67
2023/10/27 00:04:46;;;;;;;7.68;2.83;;;17.50;73.20;;;;;;6201203;28;20423;-68
2023/10/27 00:07:47;;;;;;;4.22;2.38;;;17.50;73.20;;;;;;6214452;28;20114;-67
2023/10/27 00:10:48;;;;;;;5.88;1.95;;;17.50;73.10;;;;;;6198984;28;20092;-66
2023/10/27 00:13:49;;;;;;;3.10;2.22;;;17.50;73.00;;;;;;6199056;28;20030;-67
2023/10/27 00:16:54;;;;;;;3.28;2.00;;;17.40;73.10;;;;;;6197475;28;20041;-67
2023/10/27 00:19:55;;;;;;;5.65;2.70;;;17.40;73.20;;;;;;6213752;28;20070;-67
2023/10/27 00:22:56;;;;;;;9.07;2.85;;;17.40;73.30;;;;;;6213720;28;20061;-67
2023/10/27 00:25:57;;;;;;;2.53;1.98;;;17.40;73.40;;;;;;6197792;28;20022;-68
2023/10/27 00:28:58;;;;;;;6.15;2.65;;;17.40;73.50;;;;;;6183203;28;20450;-68
2023/10/27 00:32:00;;;;;;;4.65;2.38;;;17.40;73.50;;;;;;6189527;28;20034;-67
2023/10/27 00:35:01;;;;;;;4.82;2.17;;;17.40;73.60;;;;;;6197513;28;20414;-67
2023/10/27 00:38:02;;;;;;;3.92;2.72;;;17.40;73.50;;;;;;6213433;28;20117;-67
2023/10/27 00:41:03;;;;;;;4.53;2.63;;;17.40;73.60;;;;;;6196644;28;20108;-67
2023/10/27 00:44:04;;;;;;;3.85;2.67;;;17.40;73.70;;;;;;6196781;28;20096;-67
2023/10/27 00:47:06;;;;;;;4.85;2.72;;;17.30;73.70;;;;;;6197046;28;20176;-67
2023/10/27 00:50:07;;;;;;;2.33;1.95;;;17.30;74.00;;;;;;6191695;28;20387;-67
2023/10/27 00:53:09;;;;;;;3.22;2.35;;;17.30;74.00;;;;;;6189436;28;20125;-67
2023/10/27 00:56:10;;;;;;;2.85;2.05;;;17.30;74.00;;;;;;6190031;28;20084;-67
2023/10/27 00:59:12;;;;;;;4.30;2.30;;;17.30;73.90;;;;;;6190594;28;20066;-67
2023/10/27 01:02:16;;;;;;;9.63;2.40;;;17.30;73.90;;;;;;6216294;28;20030;-66
2023/10/27 01:05:17;;;;;;;3.42;2.10;;;17.30;73.90;;;;;;6219284;28;20064;-66
2023/10/27 01:08:18;;;;;;;2.75;2.10;;;17.60;74.20;;;;;;6219146;28;20026;-66
2023/10/27 01:11:19;;;;;;;3.90;2.35;;;17.30;74.00;;;;;;6217530;28;20120;-68
2023/10/27 01:14:20;;;;;;;4.72;2.17;;;17.40;74.10;;;;;;6219293;28;20029;-68
2023/10/27 01:17:27;;;;;;;4.88;2.90;;;17.40;74.10;;;;;;6217018;28;20190;-67
2023/10/27 01:20:27;;;;;;;6.30;2.40;;;17.40;74.10;;;;;;6211082;28;20114;-66
2023/10/27 01:23:29;;;;;;;4.32;2.50;;;17.40;74.10;;;;;;6194641;28;20109;-67
2023/10/27 01:26:30;;;;;;;3.55;2.35;;;17.40;74.10;;;;;;6216713;28;20022;-67
2023/10/27 01:29:31;;;;;;;2.72;1.73;;;17.40;74.10;;;;;;6219759;28;20116;-66
2023/10/27 01:32:33;;;;;;;3.67;2.22;;;17.50;74.00;;;;;;6201068;28;20026;-66
2023/10/27 01:35:35;;;;;;;4.85;2.30;;;17.50;74.00;;;;;;6216731;28;20033;-70
2023/10/27 01:38:36;;;;;;;3.92;2.25;;;17.40;74.00;;;;;;6200814;28;20030;-68
2023/10/27 01:41:37;;;;;;;3.50;1.60;;;17.40;74.20;;;;;;6218051;28;20041;-68
2023/10/27 01:44:37;;;;;;;3.78;1.50;;;17.40;74.20;;;;;;6196834;28;20108;-67
2023/10/27 01:47:39;;;;;;;1.40;1.20;;;17.40;74.20;;;;;;6192492;28;20473;-68
2023/10/27 01:50:41;;;;;;;3.40;1.65;;;17.40;74.20;;;;;;6194241;28;20514;-67
2023/10/27 01:53:42;;;;;;;2.63;1.40;;;17.40;74.20;;;;;;6199154;28;20057;-66
2023/10/27 01:56:43;;;;;;;1.60;1.00;;;17.40;74.20;;;;;;6200199;28;20462;-66
2023/10/27 01:59:44;;;;;;;2.10;1.00;;;17.30;74.10;;;;;;6200371;28;20076;-67
2023/10/27 02:02:46;;;;;;;1.55;0.82;;;17.30;74.20;;;;;;6199918;28;20032;-66
2023/10/27 02:05:48;;;;;;;4.13;1.42;;;17.30;74.20;;;;;;6217827;28;20030;-66
2023/10/27 02:08:49;;;;;;;4.05;0.90;;;17.20;74.30;;;;;;6217213;28;20533;-66
2023/10/27 02:11:50;;;;;;;2.90;1.15;;;17.20;74.50;;;;;;6215908;28;20164;-66
2023/10/27 02:14:51;;;;;;;2.30;1.58;;;17.20;74.70;;;;;;6217745;28;20377;-66
2023/10/27 02:17:51;;;;;;;4.57;1.88;;;17.10;74.70;;;;;;6217097;28;20667;-66
2023/10/27 02:20:54;;;;;;;4.45;1.98;;;17.20;74.90;;;;;;6212212;28;20034;-66
2023/10/27 02:23:55;;;;;;;1.75;1.27;;;17.20;74.80;;;;;;6193943;28;20113;-67
2023/10/27 02:26:58;;;;;;;1.55;1.40;;;17.20;74.80;;;;;;6191610;28;20030;-66
2023/10/27 02:29:59;;;;;;;1.45;1.20;;;17.20;74.70;;;;;;6193231;28;20170;-68
2023/10/27 02:33:00;;;;;;;3.40;1.60;;;17.20;74.80;;;;;;6192548;28;20034;-68
2023/10/27 02:36:01;;;;;;;2.17;1.42;;;17.20;75.00;;;;;;6193246;28;20088;-67
2023/10/27 02:39:02;;;;;;;0.40;0.40;;;17.20;75.10;;;;;;6192682;28;20117;-67
2023/10/27 02:42:04;;;;;;;4.18;0.40;;;17.10;74.50;;;;;;6211099;28;20258;-66
2023/10/27 02:45:07;;;;;;;0.35;0.20;;;16.90;72.80;;;;;;6215402;28;20505;-67
2023/10/27 02:48:08;;;;;;;0.13;0.10;;;16.70;72.50;;;;;;6215551;28;20080;-69
2023/10/27 02:51:12;;;;;;;0.15;0.10;;;16.50;72.10;;;;;;6214655;28;20022;-69
2023/10/27 02:54:14;;;;;;;3.70;0.38;;;16.40;71.80;;;;;;6199534;28;20483;-66
2023/10/27 02:57:16;;;;;;;1.02;0.22;;;16.30;71.60;;;;;;6202274;28;20172;-67
2023/10/27 03:00:19;;;;;;;0.30;0.17;;;16.20;71.30;;;;;;6215058;28;20029;-68
2023/10/27 03:03:19;;;;;;;0.08;0.08;;;16.20;71.20;;;;;;6191305;28;20046;-67
2023/10/27 03:06:20;;;;;;;0.00;0.00;;;16.20;70.90;;;;;;6174209;28;20192;-66
2023/10/27 03:09:21;;;;;;;0.10;0.10;;;16.30;70.50;;;;;;6191807;28;20054;-67
2023/10/27 03:12:22;;;;;;;0.10;0.10;;;16.30;69.70;;;;;;6189857;28;20030;-66
2023/10/27 03:15:23;;;;;;;0.00;0.00;;;16.40;69.10;;;;;;6197527;28;20025;-66
2023/10/27 03:18:25;;;;;;;1.30;0.20;;;16.50;67.50;;;;;;6209777;28;20034;-67
2023/10/27 03:21:26;;;;;;;0.30;0.25;;;16.60;67.10;;;;;;6189939;28;20038;-66
2023/10/27 03:24:27;;;;;;;0.20;0.20;;;16.70;67.40;;;;;;6192572;28;20383;-67
2023/10/27 03:27:30;;;;;;;0.55;0.20;;;16.70;68.10;;;;;;6190678;28;20026;-66
2023/10/27 03:30:31;;;;;;;0.30;0.30;;;16.60;68.50;;;;;;6189134;28;20064;-67
2023/10/27 03:33:32;;;;;;;0.20;0.20;;;16.60;70.10;;;;;;6173454;28;20571;-68
2023/10/27 03:36:34;;;;;;;0.52;0.20;;;16.50;69.80;;;;;;6195113;28;20045;-67
2023/10/27 03:39:35;;;;;;;0.80;0.20;;;16.20;70.10;;;;;;6213744;28;20033;-66
2023/10/27 03:42:37;;;;;;;1.10;0.35;;;16.50;70.40;;;;;;6197638;28;20033;-67
2023/10/27 03:45:37;;;;;;;0.55;0.15;;;16.10;71.10;;;;;;6215444;28;20107;-67
2023/10/27 03:48:39;;;;;;;0.25;0.20;;;16.60;70.70;;;;;;6215675;28;20204;-67
2023/10/27 03:51:40;;;;;;;0.17;0.17;;;16.60;70.60;;;;;;6215627;28;20119;-68
2023/10/27 03:54:41;;;;;;;3.22;0.15;;;16.60;70.50;;;;;;6215504;28;20033;-67
2023/10/27 03:57:42;;;;;;;0.57;0.20;;;16.60;70.30;;;;;;6215430;28;20105;-67
2023/10/27 04:00:43;;;;;;;0.32;0.25;;;16.60;70.00;;;;;;6205269;28;20034;-66
2023/10/27 04:03:44;;;;;;;1.02;0.32;;;16.60;69.80;;;;;;6213220;28;20144;-67
2023/10/27 04:06:45;;;;;;;0.43;0.20;;;16.90;69.90;;;;;;6215018;28;20025;-67
2023/10/27 04:09:45;;;;;;;4.82;0.57;;;16.70;69.70;;;;;;6216005;28;20037;-66
2023/10/27 04:12:47;;;;;;;1.55;0.30;;;16.70;69.70;;;;;;6212732;28;20086;-66
2023/10/27 04:15:48;;;;;;;0.35;0.30;;;16.70;69.70;;;;;;6191187;28;20034;-68
2023/10/27 04:18:49;;;;;;;0.17;0.17;;;16.70;69.80;;;;;;6191113;28;20052;-66
2023/10/27 04:21:50;;;;;;;0.82;0.45;;;16.70;69.70;;;;;;6173845;28;20467;-68
2023/10/27 04:24:51;;;;;;;0.10;0.10;;;16.60;69.70;;;;;;6174200;28;20125;-69
2023/10/27 04:27:52;;;;;;;4.05;0.30;;;16.60;69.70;;;;;;6213294;28;20037;-67
2023/10/27 04:30:53;;;;;;;0.15;0.15;;;16.60;69.80;;;;;;6213304;28;20022;-67
2023/10/27 04:33:56;;;;;;;0.20;0.20;;;16.50;69.60;;;;;;6200249;28;20061;-67
2023/10/27 04:36:57;;;;;;;0.47;0.22;;;16.50;69.70;;;;;;6218650;28;20116;-67
2023/10/27 04:39:58;;;;;;;4.70;0.38;;;16.40;69.80;;;;;;6218358;28;20030;-67
2023/10/27 04:43:00;;;;;;;0.73;0.20;;;16.30;69.90;;;;;;6201782;28;20529;-67
2023/10/27 04:46:01;;;;;;;2.47;0.20;;;16.30;70.10;;;;;;6218349;28;20022;-67
2023/10/27 04:49:03;;;;;;;2.90;0.38;;;16.30;70.20;;;;;;6221315;28;20030;-67
2023/10/27 04:52:05;;;;;;;0.80;0.22;;;16.20;70.20;;;;;;6223907;23;20057;-66
2023/10/27 04:55:07;;;;;;;0.35;0.25;;;16.10;70.20;;;;;;6203191;28;20042;-67
2023/10/27 04:58:07;;;;;;;1.00;0.57;;;16.10;70.30;;;;;;6201805;28;20141;-67
2023/10/27 05:01:08;;;;;;;0.17;0.10;;;16.10;70.40;;;;;;6203039;28;20476;-66
2023/10/27 05:04:09;;;;;;;0.47;0.40;;;16.10;70.20;;;;;;6197390;28;20026;-67
2023/10/27 05:07:10;;;;;;;2.53;0.40;;;16.10;70.20;;;;;;6197484;28;20037;-67
2023/10/27 05:10:11;;;;;;;0.40;0.20;;;16.10;70.20;;;;;;6192947;28;20027;-67
2023/10/27 05:13:12;;;;;;;6.40;0.38;;;16.10;70.10;;;;;;6181094;28;20061;-67
2023/10/27 05:16:12;;;;;;;0.63;0.40;;;16.20;70.00;;;;;;6185727;28;20027;-66
2023/10/27 05:19:13;;;;;;;0.57;0.40;;;16.20;69.80;;;;;;6171586;28;20078;-67
2023/10/27 05:22:14;;;;;;;0.28;0.13;;;16.20;69.60;;;;;;6198809;28;20677;-67
2023/10/27 05:25:15;;;;;;;1.27;0.45;;;16.30;69.40;;;;;;6194961;28;20066;-68
2023/10/27 05:28:16;;;;;;;0.38;0.32;;;16.20;70.00;;;;;;6195600;28;20042;-66
2023/10/27 05:31:17;;;;;;;3.05;0.50;;;16.30;69.10;;;;;;6195040;28;20521;-68
2023/10/27 05:34:18;;;;;;;0.85;0.45;;;16.30;69.20;;;;;;6213097;28;20053;-67
2023/10/27 05:37:20;;;;;;;0.32;0.22;;;16.30;69.10;;;;;;6201515;28;20046;-68
2023/10/27 05:40:23;;;;;;;0.60;0.40;;;15.80;68.60;;;;;;6228868;28;20197;-67
2023/10/27 05:43:25;;;;;;;2.28;0.30;;;16.40;69.00;;;;;;6193973;28;20046;-67
2023/10/27 05:46:26;;;;;;;0.75;0.63;;;16.40;69.00;;;;;;6193947;28;20102;-68
2023/10/27 05:49:27;;;;;;;0.45;0.40;;;16.50;68.80;;;;;;6209178;28;20026;-68
2023/10/27 05:52:28;;;;;;;0.63;0.63;;;16.50;68.70;;;;;;6218508;28;20121;-67
2023/10/27 05:55:29;;;;;;;0.75;0.55;;;16.40;68.70;;;;;;6216929;28;20083;-68
2023/10/27 05:58:33;;;;;;;0.75;0.70;;;16.40;68.90;;;;;;6217552;28;20112;-67
2023/10/27 06:01:34;;;;;;;2.28;0.88;;;16.40;68.90;;;;;;6199743;28;20042;-67
2023/10/27 06:04:36;;;;;;;1.13;0.70;;;16.40;68.90;;;;;;6192722;28;20125;-68
2023/10/27 06:07:37;;;;;;;3.88;0.63;;;16.50;69.00;;;;;;6193109;28;20117;-68
2023/10/27 06:10:38;;;;;;;1.30;0.98;;;16.50;68.90;;;;;;6191040;28;20029;-68
2023/10/27 06:13:39;;;;;;;0.80;0.60;;;16.50;68.80;;;;;;6191992;28;20035;-69
2023/10/27 06:16:40;;;;;;;2.53;0.70;;;16.60;68.80;;;;;;6175474;28;20518;-68
2023/10/27 06:19:41;;;;;;;0.75;0.57;;;16.60;68.90;;;;;;6174730;28;20056;-67
2023/10/27 06:22:43;;;;;;;1.63;0.85;;;16.60;68.80;;;;;;6196956;28;20105;-67
2023/10/27 06:25:45;;;;;;;2.45;1.75;;;16.60;68.80;;;;;;6191112;28;20141;-67
2023/10/27 06:28:46;;;;;;;1.42;1.00;;;16.70;68.80;;;;;;6174428;28;20066;-68
2023/10/27 06:31:47;;;;;;;2.97;0.63;;;16.70;68.80;;;;;;6206949;28;20035;-68
2023/10/27 06:34:48;;;;;;;1.00;0.70;;;16.70;69.00;;;;;;6207091;28;20052;-67
2023/10/27 06:37:49;;;;;;;0.93;0.70;;;16.60;68.90;;;;;;6207540;28;20030;-66
2023/10/27 06:40:49;;;;;;;1.25;1.05;;;16.60;69.10;;;;;;6191924;28;20479;-66
2023/10/27 06:43:50;;;;;;;16.25;2.80;;;16.40;69.30;;;;;;6192459;28;20038;-66
2023/10/27 06:46:53;;;;;;;6.28;1.77;;;16.40;69.70;;;;;;6192429;28;20479;-66
2023/10/27 06:49:54;;;;;;;2.10;0.98;;;16.30;70.00;;;;;;6191590;28;20067;-66
2023/10/27 06:52:55;;;;;;;1.55;0.77;;;16.30;70.30;;;;;;6190184;28;20112;-66
2023/10/27 06:55:56;;;;;;;3.38;0.90;;;16.20;70.50;;;;;;6192168;28;20557;-67
2023/10/27 06:58:59;;;;;;;2.10;0.68;;;16.20;70.60;;;;;;6191663;28;20034;-66
2023/10/27 07:02:00;;;;;;;1.23;0.80;;;16.20;70.70;;;;;;6189552;28;20033;-68
2023/10/27 07:05:05;;;;;;;1.08;0.50;;;16.10;70.70;;;;;;6179086;28;20624;-67
2023/10/27 07:08:07;;;;;;;1.95;0.73;;;16.10;70.80;;;;;;6190137;28;20102;-66
2023/10/27 07:11:07;;;;;;;0.75;0.68;;;16.20;70.90;;;;;;6196504;28;20032;-67
2023/10/27 07:14:10;;;;;;;2.47;0.95;;;16.20;70.90;;;;;;6213611;28;20064;-67
2023/10/27 07:17:11;;;;;;;6.82;1.02;;;16.20;70.90;;;;;;6214832;28;20054;-68
2023/10/27 07:20:12;;;;;;;1.58;0.65;;;16.20;70.90;;;;;;6213938;28;20688;-68
2023/10/27 07:23:13;;;;;;;1.90;0.68;;;16.20;70.80;;;;;;6214496;28;20049;-68
2023/10/27 07:26:15;;;;;;;3.97;1.08;;;16.30;70.90;;;;;;6214783;28;20129;-68
2023/10/27 07:29:16;;;;;;;0.52;0.50;;;16.30;70.80;;;;;;6207792;28;20076;-67
2023/10/27 07:32:17;;;;;;;2.10;0.77;;;16.40;70.90;;;;;;6172851;28;20172;-67
2023/10/27 07:35:18;;;;;;;1.23;0.70;;;16.40;71.60;;;;;;6181594;28;20386;-69
2023/10/27 07:38:19;;;;;;;3.17;0.63;;;16.40;70.90;;;;;;6184256;28;20092;-68
2023/10/27 07:41:20;;;;;;;3.45;1.10;;;16.50;71.10;;;;;;6166950;28;20046;-66
2023/10/27 07:44:21;;;;;;;1.98;1.00;;;16.50;71.00;;;;;;6166404;28;20038;-67
2023/10/27 07:47:22;;;;;;;4.30;1.20;;;16.50;70.90;;;;;;6166515;28;20023;-66
2023/10/27 07:50:22;;;;;;;2.60;1.15;;;16.50;70.90;;;;;;6166562;28;20030;-67
2023/10/27 07:53:24;;;;;;;2.25;1.33;;;16.60;70.80;;;;;;6165949;28;20113;-67
2023/10/27 07:56:25;;;;;;;2.13;1.05;;;16.60;70.80;;;;;;6166512;28;20038;-66
2023/10/27 07:59:27;;;;;;;3.03;1.33;;;16.60;70.90;;;;;;6189465;23;20528;-67
2023/10/27 08:02:29;;;;;;;1.88;1.20;;;16.70;70.80;;;;;;6189195;28;20391;-68
2023/10/27 08:05:30;;;;;;;1.90;1.25;;;16.70;70.60;;;;;;6190450;28;20018;-66
2023/10/27 08:08:32;;;;;;;10.98;1.95;;;16.80;70.60;;;;;;6182559;28;20090;-66
2023/10/27 08:11:35;;;;;;;3.70;1.90;;;16.90;70.50;;;;;;6198011;28;20022;-68
2023/10/27 08:14:38;;;;;;;4.97;1.20;;;16.90;70.50;;;;;;6199292;28;20177;-67
2023/10/27 08:17:39;;;;;;;2.53;1.45;;;17.00;70.50;;;;;;6199182;28;20026;-68
2023/10/27 08:21:11;;;;;;;2.85;2.00;;;17.10;70.30;;;;;;6198876;28;20038;-67
2023/10/27 08:24:14;;;;;;;1.67;1.20;;;17.20;70.10;;;;;;6198048;28;20034;-67
2023/10/27 08:27:15;;;;;;;11.77;5.60;;;17.30;70.00;;;;;;6187563;28;20030;-66
2023/10/27 08:30:17;;;;;;;8.35;3.30;;;17.40;69.70;;;;;;6173640;28;20102;-66
2023/10/27 08:33:18;;;;;;;4.63;1.60;;;17.50;69.40;;;;;;6173755;28;20115;-67
2023/10/27 08:36:19;;;;;;;7.13;1.92;;;17.60;69.30;;;;;;6173095;28;20123;-68
2023/10/27 08:39:20;;;;;;;2.72;1.58;;;17.90;69.10;;;;;;6172448;28;20479;-66
2023/10/27 08:42:32;;;;;;;4.85;1.42;;;17.70;68.40;;;;;;6174622;28;20035;-67
2023/10/27 08:45:34;;;;;;;1.08;0.95;;;17.80;68.40;;;;;;6205527;28;20022;-68
2023/10/27 08:48:42;;;;;;;3.45;1.75;;;17.90;68.30;;;;;;6185829;28;20106;-66
2023/10/27 08:52:08;;;;;;;11.00;2.25;;;17.80;68.10;;;;;;6187555;28;20642;-68
2023/10/27 08:55:12;;;;;;;2.47;1.10;;;17.90;68.10;;;;;;6181900;28;20038;-66
2023/10/27 08:58:15;;;;;;;1.55;1.15;;;17.90;67.90;;;;;;6168924;28;20050;-66
2023/10/27 09:01:16;;;;;;;5.45;1.45;;;17.90;68.00;;;;;;6185334;28;20346;-67
2023/10/27 09:04:23;;;;;;;1.35;0.95;;;17.90;68.00;;;;;;6188120;28;20030;-69
2023/10/27 09:07:28;;;;;;;6.55;1.17;;;17.90;67.80;;;;;;6183194;28;20718;-67
2023/10/27 09:10:46;;;;;;;1.52;1.10;;;17.90;67.70;;;;;;6170196;28;20034;-68
2023/10/27 09:13:47;;;;;;;2.75;1.33;;;17.90;67.70;;;;;;6185260;28;20042;-66
2023/10/27 09:16:49;;;;;;;1.45;1.08;;;17.80;68.60;;;;;;6187504;28;20101;-69
2023/10/27 09:20:03;;;;;;;3.03;1.10;;;17.80;67.70;;;;;;6173770;28;20050;-68
2023/10/27 09:23:05;;;;;;;1.73;1.15;;;17.80;67.50;;;;;;6168383;28;20030;-69
2023/10/27 09:26:06;;;;;;;2.67;1.20;;;17.80;67.40;;;;;;6186717;28;20127;-67
2023/10/27 09:29:07;;;;;;;6.75;2.90;;;17.80;67.10;;;;;;6193425;28;20034;-67
2023/10/27 09:32:27;;;;;;;5.50;2.90;;;17.90;67.20;;;;;;6193874;28;20030;-67
2023/10/27 09:35:55;;;;;;;2.55;1.63;;;17.90;67.20;;;;;;6185178;28;20501;-67
2023/10/27 09:38:56;;;;;;;1.52;1.20;;;18.00;67.20;;;;;;6182211;28;20713;-68
2023/10/27 09:42:07;;;;;;;3.28;2.03;;;18.10;67.10;;;;;;6167177;28;20034;-67
2023/10/27 09:45:17;;;;;;;2.97;1.40;;;18.20;67.00;;;;;;6179765;28;20312;-68
2023/10/27 09:48:29;;;;;;;0.80;0.80;;;18.40;66.70;;;;;;6179087;28;20745;-68
2023/10/27 09:51:30;;;;;;;0.90;0.77;;;18.50;66.10;;;;;;6171683;28;20070;-68
2023/10/27 09:54:31;;;;;;;1.15;0.73;;;18.50;65.60;;;;;;6173329;28;20058;-67
2023/10/27 09:57:33;;;;;;;0.95;0.73;;;18.50;65.50;;;;;;6160083;28;20037;-66
2023/10/27 10:00:35;;;;;;;2.95;0.60;;;18.70;64.80;;;;;;6154444;28;20045;-68
2023/10/27 10:03:41;;;;;;;4.55;0.82;;;19.00;63.40;;;;;;6168747;28;20034;-67
2023/10/27 10:06:41;;;;;;;2.03;0.82;;;19.30;62.40;;;;;;6167021;28;20062;-68
2023/10/27 10:09:42;;;;;;;1.48;0.98;;;19.60;61.50;;;;;;6168261;28;20739;-68
2023/10/27 10:13:12;;;;;;;8.00;1.02;;;19.80;60.60;;;;;;6187573;28;20038;-68
2023/10/27 10:16:14;;;;;;;0.50;0.50;;;20.10;59.80;;;;;;6188215;28;20941;-69
2023/10/27 10:19:55;;;;;;;4.95;1.60;;;20.30;59.40;;;;;;6186671;28;20336;-68
2023/10/27 10:22:57;;;;;;;3.03;0.70;;;20.50;59.10;;;;;;6162169;28;20110;-68
2023/10/27 10:25:59;;;;;;;1.30;0.68;;;20.70;57.50;;;;;;6144589;28;20031;-67
2023/10/27 10:29:29;;;;;;;1.60;0.82;;;21.00;57.10;;;;;;6167352;28;20029;-66
2023/10/27 10:32:35;;;;;;;2.58;0.82;;;21.30;57.00;;;;;;6191659;28;20137;-68
2023/10/27 10:35:38;;;;;;;1.48;0.70;;;21.60;56.40;;;;;;6192022;28;20444;-68
2023/10/27 10:38:43;;;;;;;2.15;1.00;;;22.00;55.70;;;;;;6159146;28;20082;-67
2023/10/27 10:41:44;;;;;;;3.85;0.88;;;22.30;55.00;;;;;;6165333;28;20038;-67
2023/10/27 10:44:47;;;;;;;1.45;0.80;;;22.50;54.40;;;;;;6168251;28;20038;-68
2023/10/27 10:47:48;;;;;;;6.65;1.40;;;22.70;54.00;;;;;;6167990;28;20360;-68
2023/10/27 10:50:50;;;;;;;1.85;0.98;;;22.90;53.50;;;;;;6168525;28;20027;-69
2023/10/27 10:53:55;;;;;;;4.25;0.90;;;23.20;52.30;;;;;;6152964;28;20078;-70
2023/10/27 10:57:04;;;;;;;1.88;1.02;;;23.40;51.70;;;;;;6166109;28;20035;-68
2023/10/27 11:00:09;;;;;;;5.68;1.65;;;23.50;51.30;;;;;;6150796;28;20070;-70
2023/10/27 11:03:12;;;;;;;3.88;1.65;;;23.80;51.00;;;;;;6167296;28;20673;-68
2023/10/27 11:06:13;;;;;;;1.50;0.80;;;24.00;50.20;;;;;;6150802;28;20119;-69
2023/10/27 11:09:23;;;;;;;6.05;1.00;;;24.00;49.60;;;;;;6173230;28;20064;-67
2023/10/27 11:12:28;;;;;;;2.30;0.98;;;24.40;49.30;;;;;;6173710;28;20078;-69
2023/10/27 11:15:48;;;;;;;0.88;0.63;;;24.80;48.20;;;;;;6155343;28;20034;-68
2023/10/27 11:18:57;;;;;;;1.85;0.77;;;25.20;46.90;;;;;;6173793;28;20041;-69
2023/10/27 11:21:59;;;;;;;4.20;0.80;;;25.70;45.60;;;;;;6173884;28;20038;-68
2023/10/27 11:25:00;;;;;;;1.05;0.73;;;26.40;44.60;;;;;;6168120;28;20503;-68
2023/10/27 11:28:20;;;;;;;2.10;1.02;;;27.00;42.80;;;;;;6160284;28;20109;-68
2023/10/27 11:31:21;;;;;;;1.02;0.70;;;27.40;41.30;;;;;;6211293;23;20083;-69
2023/10/27 11:34:26;;;;;;;0.80;0.50;;;27.70;40.50;;;;;;6233880;28;20039;-69
2023/10/27 11:37:29;;;;;;;3.50;0.70;;;28.10;39.50;;;;;;6229568;28;20033;-68
2023/10/27 11:41:25;;;;;;;;;;;;;;;;;;;;;
2023/10/27 11:44:40;;;;;;;7.10;1.23;;;27.80;38.00;;;;;;6090503;29;20071;-69
2023/10/27 11:47:41;;;;;;;1.55;0.70;;;27.80;39.10;;;;;;6077030;29;20044;-69
2023/10/27 11:50:42;;;;;;;6.38;1.73;;;27.30;39.40;;;;;;6139662;23;20052;-72
2023/10/27 11:53:51;;;;;;;1.13;0.73;;;26.90;40.10;;;;;;6222602;28;20026;-69
2023/10/27 11:56:53;;;;;;;1.10;0.47;;;26.60;40.70;;;;;;6201496;28;20516;-70
2023/10/27 11:59:54;;;;;;;1.00;0.60;;;26.50;40.90;;;;;;6239604;23;20030;-69
2023/10/27 12:02:56;;;;;;;0.93;0.57;;;26.40;40.80;;;;;;6227581;28;20037;-68
2023/10/27 12:05:57;;;;;;;0.60;0.60;;;26.10;40.80;;;;;;6228619;28;20062;-68
2023/10/27 12:08:58;;;;;;;3.28;0.43;;;25.90;41.00;;;;;;6227834;28;20040;-69
2023/10/27 12:11:59;;;;;;;3.17;0.70;;;26.00;40.90;;;;;;6222670;28;20018;-69
2023/10/27 12:15:02;;;;;;;2.70;0.90;;;26.20;40.60;;;;;;6197354;28;20038;-68
2023/10/27 12:18:03;;;;;;;2.28;0.52;;;26.40;40.50;;;;;;6197101;28;20034;-68
2023/10/27 12:21:05;;;;;;;1.65;0.70;;;26.20;40.40;;;;;;6197292;28;20033;-70
2023/10/27 12:24:09;;;;;;;1.23;0.60;;;26.00;40.70;;;;;;6198262;28;20036;-70
2023/10/27 12:27:12;;;;;;;3.45;0.65;;;25.70;40.70;;;;;;6198214;28;20168;-70
2023/10/27 12:30:17;;;;;;;5.00;0.50;;;25.20;40.60;;;;;;6198421;28;20481;-69
2023/10/27 12:33:19;;;;;;;0.63;0.55;;;24.80;41.10;;;;;;6189250;28;20025;-70
2023/10/27 12:36:22;;;;;;;4.78;0.90;;;24.30;41.50;;;;;;6200599;28;20423;-68
2023/10/27 12:39:23;;;;;;;0.40;0.40;;;23.90;42.10;;;;;;6196328;28;20121;-70
2023/10/27 12:42:25;;;;;;;1.73;0.68;;;23.50;42.70;;;;;;6191764;28;20030;-68
2023/10/27 12:45:26;;;;;;;1.00;0.50;;;23.10;43.10;;;;;;6189230;28;20081;-69
2023/10/27 12:48:27;;;;;;;5.68;1.00;;;22.90;43.60;;;;;;6169140;28;20125;-70
2023/10/27 12:51:28;;;;;;;1.52;0.77;;;22.70;43.90;;;;;;6179357;28;20050;-68
2023/10/27 12:54:29;;;;;;;1.45;0.90;;;22.60;44.20;;;;;;6191358;28;20038;-68
2023/10/27 12:57:31;;;;;;;1.20;0.70;;;22.40;44.30;;;;;;6169787;28;20541;-67
2023/10/27 13:00:34;;;;;;;8.65;1.10;;;22.30;44.40;;;;;;6166699;28;20821;-68
2023/10/27 13:03:35;;;;;;;2.45;0.75;;;22.30;44.50;;;;;;6189601;28;20019;-68
2023/10/27 13:06:38;;;;;;;1.52;0.73;;;22.60;44.70;;;;;;6161193;28;20061;-69
2023/10/27 13:09:39;;;;;;;1.38;0.30;;;22.20;44.70;;;;;;6176437;28;20113;-68
2023/10/27 13:12:41;;;;;;;0.50;0.38;;;22.20;44.50;;;;;;6203300;28;20113;-69
2023/10/27 13:15:42;;;;;;;0.32;0.32;;;22.10;44.60;;;;;;6159194;28;20044;-68
2023/10/27 13:18:43;;;;;;;3.42;0.50;;;22.10;44.60;;;;;;6192545;28;20049;-68
2023/10/27 13:21:46;;;;;;;3.33;0.70;;;22.10;44.60;;;;;;6297364;23;20049;-68
2023/10/27 13:24:47;;;;;;;3.95;0.55;;;22.20;45.00;;;;;;6193403;28;20125;-69
2023/10/27 13:27:48;;;;;;;1.52;0.65;;;22.20;45.00;;;;;;6171991;28;20077;-69
2023/10/27 13:30:53;;;;;;;2.15;0.65;;;22.40;44.80;;;;;;6192086;28;20567;-69
2023/10/27 13:33:55;;;;;;;0.50;0.35;;;22.40;44.90;;;;;;6173896;28;20034;-69
2023/10/27 13:36:56;;;;;;;1.73;0.75;;;22.40;45.00;;;;;;6159255;28;20387;-69
2023/10/27 13:39:57;;;;;;;5.80;0.60;;;22.40;45.00;;;;;;6151630;28;20133;-69
2023/10/27 13:42:59;;;;;;;6.60;0.80;;;22.40;44.90;;;;;;6167661;28;20083;-70
2023/10/27 13:46:00;;;;;;;1.52;0.50;;;22.30;45.00;;;;;;6152586;28;20102;-69
2023/10/27 13:49:10;;;;;;;0.77;0.47;;;22.20;45.30;;;;;;6151900;28;20460;-68
2023/10/27 13:56:16;;;;;;;0.35;0.32;;;22.10;46.10;;;;;;6353465;23;20049;-68
2023/10/27 14:02:56;;;;;;;0.50;0.50;;;21.90;46.70;;;;;;5215628;23;20494;-67
2023/10/27 14:06:00;;;;;;;0.85;0.50;;;21.80;46.60;;;;;;6183434;28;20463;-69
2023/10/27 14:09:04;;;;;;;4.75;0.50;;;21.80;46.50;;;;;;6197767;28;20112;-68
2023/10/27 14:12:05;;;;;;;3.13;0.65;;;21.70;46.70;;;;;;6183456;28;20125;-69
2023/10/27 14:15:13;;;;;;;0.73;0.35;;;21.60;46.60;;;;;;6200379;28;20037;-70
2023/10/27 14:18:14;;;;;;;1.45;0.50;;;21.60;46.70;;;;;;6183609;28;20406;-69
2023/10/27 14:21:16;;;;;;;2.13;0.52;;;21.50;46.90;;;;;;6213222;23;20612;-70
2023/10/27 14:24:18;;;;;;;1.88;0.60;;;21.50;47.30;;;;;;6175465;28;20046;-69
2023/10/27 14:27:19;;;;;;;2.08;0.80;;;21.40;48.10;;;;;;6175830;28;20030;-69
2023/10/27 14:30:20;;;;;;;0.75;0.47;;;21.40;47.90;;;;;;6164865;28;20027;-70
2023/10/27 14:33:22;;;;;;;1.02;0.35;;;21.50;48.20;;;;;;6150880;28;20039;-70
2023/10/27 14:36:23;;;;;;;4.38;0.32;;;21.50;48.30;;;;;;6151842;28;20102;-69
2023/10/27 14:42:42;;;;;;;2.83;0.50;;;21.40;48.30;;;;;;6293386;23;20042;-69
2023/10/27 14:45:42;;;;;;;0.80;0.47;;;21.40;48.30;;;;;;6199796;28;20346;-72
2023/10/27 14:48:48;;;;;;;1.33;0.50;;;21.40;48.20;;;;;;6216901;28;20065;-69
2023/10/27 14:51:51;;;;;;;3.03;0.30;;;21.30;47.90;;;;;;6215898;28;20080;-68
2023/10/27 14:54:55;;;;;;;0.38;0.38;;;21.30;47.30;;;;;;6197844;28;20137;-69
2023/10/27 14:57:59;;;;;;;3.45;0.30;;;21.30;46.80;;;;;;6199256;28;20497;-69
2023/10/27 15:01:15;;;;;;;1.92;0.47;;;21.30;46.70;;;;;;6346675;23;20125;-69
2023/10/27 15:04:22;;;;;;;0.55;0.50;;;21.30;46.40;;;;;;6217152;28;20030;-69
2023/10/27 15:07:24;;;;;;;3.00;0.68;;;21.40;46.10;;;;;;6214824;28;20025;-70
2023/10/27 15:10:37;;;;;;;2.45;0.60;;;21.40;46.10;;;;;;6291557;23;20118;-70
2023/10/27 15:13:38;;;;;;;1.13;0.60;;;21.40;46.30;;;;;;6216578;28;20030;-69
2023/10/27 15:16:42;;;;;;;2.42;0.80;;;21.40;46.70;;;;;;6216330;28;20061;-71
2023/10/27 15:24:05;;;;;;;1.07;0.70;;;21.50;47.30;;;;;;6189526;28;20820;-69
2023/10/27 15:27:06;;;;;;;1.10;0.80;;;21.40;47.50;;;;;;6190242;28;20053;-69
2023/10/27 15:33:17;;;;;;;2.55;0.65;;;21.40;47.90;;;;;;6237715;28;20483;-70
2023/10/27 15:36:19;;;;;;;2.30;0.90;;;21.40;48.00;;;;;;6222372;28;20044;-69
2023/10/27 15:39:25;;;;;;;4.13;0.68;;;21.40;48.10;;;;;;6208258;28;20037;-69
2023/10/27 15:42:27;;;;;;;2.75;0.90;;;21.30;48.30;;;;;;6201437;28;20517;-69
2023/10/27 15:45:28;;;;;;;1.13;0.80;;;21.20;48.40;;;;;;6214062;28;20018;-69
2023/10/27 15:48:33;;;;;;;0.98;0.63;;;21.20;48.60;;;;;;6182854;28;20117;-69
2023/10/27 15:51:53;;;;;;;0.85;0.65;;;21.10;48.80;;;;;;6368949;23;20120;-68
2023/10/27 15:54:54;;;;;;;0.63;0.52;;;21.10;49.20;;;;;;6214383;28;20084;-68
2023/10/27 15:57:55;;;;;;;1.02;0.68;;;21.00;49.50;;;;;;6232148;28;20029;-69
2023/10/27 16:00:57;;;;;;;1.60;0.90;;;20.80;49.80;;;;;;6213164;28;20558;-69
2023/10/27 16:03:58;;;;;;;3.17;0.98;;;20.70;50.10;;;;;;6197402;28;20030;-68
2023/10/27 16:07:00;;;;;;;4.05;0.98;;;20.60;50.50;;;;;;6189273;28;20085;-68
2023/10/27 16:14:04;;;;;;;3.92;0.60;;;20.50;50.80;;;;;;5989124;23;20061;-70
2023/10/27 16:17:06;;;;;;;1.15;0.68;;;20.40;50.90;;;;;;6076347;29;20460;-69